sensor_id;sensor_type;location;lat;lon;timestamp;P1;durP1;ratioP1;P2;durP2;ratioP2
46589;SDS011;32313;48.722;9.362;2023-02-28T00:00:29;13.23;;;12.27;;
46589;SDS011;32313;48.722;9.362;2023-02-28T00:02:54;13.20;;;12.30;;
46589;SDS011;32313;48.722;9.362;2023-02-28T00:05:21;14.20;;;13.20;;
46589;SDS011;32313;48.722;9.362;2023-02-28T00:07:48;13.83;;;13.03;;
46589;SDS011;32313;48.722;9.362;2023-02-28T00:10:16;13.37;;;12.50;;
46589;SDS011;32313;48.722;9.362;2023-02-28T00:12:46;13.97;;;13.07;;
46589;SDS011;32313;48.722;9.362;2023-02-28T00:15:12;13.13;;;12.33;;
46589;SDS011;32313;48.722;9.362;2023-02-28T00:17:38;13.50;;;12.70;;
46589;SDS011;32313;48.722;9.362;2023-02-28T00:20:05;14.27;;;13.33;;
46589;SDS011;32313;48.722;9.362;2023-02-28T00:22:35;13.80;;;12.80;;
46589;SDS011;32313;48.722;9.362;2023-02-28T00:25:02;13.67;;;12.57;;
46589;SDS011;32313;48.722;9.362;2023-02-28T00:27:29;13.53;;;12.47;;
46589;SDS011;32313;48.722;9.362;2023-02-28T00:29:55;13.27;;;12.37;;
46589;SDS011;32313;48.722;9.362;2023-02-28T00:32:20;12.60;;;11.90;;
46589;SDS011;32313;48.722;9.362;2023-02-28T00:34:46;12.90;;;12.20;;
46589;SDS011;32313;48.722;9.362;2023-02-28T00:37:13;13.47;;;12.70;;
46589;SDS011;32313;48.722;9.362;2023-02-28T00:39:39;13.73;;;12.93;;
46589;SDS011;32313;48.722;9.362;2023-02-28T00:42:06;13.57;;;12.73;;
46589;SDS011;32313;48.722;9.362;2023-02-28T00:44:33;13.87;;;12.87;;
46589;SDS011;32313;48.722;9.362;2023-02-28T00:46:59;13.93;;;13.03;;
46589;SDS011;32313;48.722;9.362;2023-02-28T00:49:26;13.50;;;12.80;;
46589;SDS011;32313;48.722;9.362;2023-02-28T00:51:53;13.77;;;12.77;;
46589;SDS011;32313;48.722;9.362;2023-02-28T00:54:20;14.47;;;13.37;;
46589;SDS011;32313;48.722;9.362;2023-02-28T00:56:46;14.70;;;13.90;;
46589;SDS011;32313;48.722;9.362;2023-02-28T00:59:13;14.20;;;13.10;;
46589;SDS011;32313;48.722;9.362;2023-02-28T01:01:39;13.60;;;12.80;;
46589;SDS011;32313;48.722;9.362;2023-02-28T01:04:05;13.80;;;13.00;;
46589;SDS011;32313;48.722;9.362;2023-02-28T01:06:32;13.50;;;12.70;;
46589;SDS011;32313;48.722;9.362;2023-02-28T01:08:58;13.50;;;12.70;;
46589;SDS011;32313;48.722;9.362;2023-02-28T01:11:25;13.70;;;12.90;;
46589;SDS011;32313;48.722;9.362;2023-02-28T01:13:51;14.17;;;13.27;;
46589;SDS011;32313;48.722;9.362;2023-02-28T01:16:17;13.40;;;12.50;;
46589;SDS011;32313;48.722;9.362;2023-02-28T01:18:44;14.37;;;13.37;;
46589;SDS011;32313;48.722;9.362;2023-02-28T01:21:11;13.80;;;12.90;;
46589;SDS011;32313;48.722;9.362;2023-02-28T01:23:39;13.07;;;12.30;;
46589;SDS011;32313;48.722;9.362;2023-02-28T01:26:06;13.70;;;12.90;;
46589;SDS011;32313;48.722;9.362;2023-02-28T01:28:42;13.73;;;12.93;;
46589;SDS011;32313;48.722;9.362;2023-02-28T01:31:08;13.90;;;13.07;;
46589;SDS011;32313;48.722;9.362;2023-02-28T01:33:36;14.27;;;13.30;;
46589;SDS011;32313;48.722;9.362;2023-02-28T01:36:06;14.03;;;13.13;;
46589;SDS011;32313;48.722;9.362;2023-02-28T01:38:35;13.60;;;12.80;;
46589;SDS011;32313;48.722;9.362;2023-02-28T01:41:01;13.03;;;12.17;;
46589;SDS011;32313;48.722;9.362;2023-02-28T01:43:28;13.03;;;12.23;;
46589;SDS011;32313;48.722;9.362;2023-02-28T01:45:56;14.00;;;13.00;;
46589;SDS011;32313;48.722;9.362;2023-02-28T01:48:25;13.57;;;12.77;;
46589;SDS011;32313;48.722;9.362;2023-02-28T01:50:55;14.13;;;13.13;;
46589;SDS011;32313;48.722;9.362;2023-02-28T01:53:26;14.73;;;13.63;;
46589;SDS011;32313;48.722;9.362;2023-02-28T01:55:58;13.57;;;12.57;;
46589;SDS011;32313;48.722;9.362;2023-02-28T01:58:25;13.60;;;12.70;;
46589;SDS011;32313;48.722;9.362;2023-02-28T02:00:50;13.53;;;12.73;;
46589;SDS011;32313;48.722;9.362;2023-02-28T02:03:17;13.73;;;12.93;;
46589;SDS011;32313;48.722;9.362;2023-02-28T02:05:45;14.17;;;13.17;;
46589;SDS011;32313;48.722;9.362;2023-02-28T02:08:21;14.27;;;13.40;;
46589;SDS011;32313;48.722;9.362;2023-02-28T02:10:50;14.50;;;13.67;;
46589;SDS011;32313;48.722;9.362;2023-02-28T02:16:11;13.60;;;12.70;;
46589;SDS011;32313;48.722;9.362;2023-02-28T02:18:50;14.17;;;13.27;;
46589;SDS011;32313;48.722;9.362;2023-02-28T02:24:04;14.50;;;13.50;;
46589;SDS011;32313;48.722;9.362;2023-02-28T02:35:34;14.67;;;13.67;;
46589;SDS011;32313;48.722;9.362;2023-02-28T02:48:45;14.30;;;13.30;;
46589;SDS011;32313;48.722;9.362;2023-02-28T02:51:16;13.47;;;12.67;;
46589;SDS011;32313;48.722;9.362;2023-02-28T02:53:47;14.83;;;13.77;;
46589;SDS011;32313;48.722;9.362;2023-02-28T02:56:15;14.80;;;13.80;;
46589;SDS011;32313;48.722;9.362;2023-02-28T02:58:44;14.80;;;13.83;;
46589;SDS011;32313;48.722;9.362;2023-02-28T03:01:15;14.10;;;13.03;;
46589;SDS011;32313;48.722;9.362;2023-02-28T03:03:53;14.93;;;13.80;;
46589;SDS011;32313;48.722;9.362;2023-02-28T03:06:21;14.03;;;13.23;;
46589;SDS011;32313;48.722;9.362;2023-02-28T03:08:47;14.10;;;13.30;;
46589;SDS011;32313;48.722;9.362;2023-02-28T03:11:13;14.57;;;13.70;;
46589;SDS011;32313;48.722;9.362;2023-02-28T03:27:16;14.13;;;13.13;;
46589;SDS011;32313;48.722;9.362;2023-02-28T03:30:07;15.53;;;14.43;;
46589;SDS011;32313;48.722;9.362;2023-02-28T03:32:57;14.40;;;13.43;;
46589;SDS011;32313;48.722;9.362;2023-02-28T03:35:50;14.50;;;13.60;;
46589;SDS011;32313;48.722;9.362;2023-02-28T03:38:41;15.10;;;14.10;;
46589;SDS011;32313;48.722;9.362;2023-02-28T03:41:45;14.13;;;13.27;;
46589;SDS011;32313;48.722;9.362;2023-02-28T03:46:52;15.50;;;14.40;;
46589;SDS011;32313;48.722;9.362;2023-02-28T03:49:25;14.23;;;13.23;;
46589;SDS011;32313;48.722;9.362;2023-02-28T03:51:55;15.97;;;14.87;;
46589;SDS011;32313;48.722;9.362;2023-02-28T03:54:25;15.67;;;14.60;;
46589;SDS011;32313;48.722;9.362;2023-02-28T03:57:47;16.40;;;15.27;;
46589;SDS011;32313;48.722;9.362;2023-02-28T04:00:03;15.03;;;13.90;;
46589;SDS011;32313;48.722;9.362;2023-02-28T04:02:56;15.30;;;14.10;;
46589;SDS011;32313;48.722;9.362;2023-02-28T04:05:22;14.50;;;13.50;;
46589;SDS011;32313;48.722;9.362;2023-02-28T04:07:49;14.60;;;13.60;;
46589;SDS011;32313;48.722;9.362;2023-02-28T04:10:15;15.00;;;13.90;;
46589;SDS011;32313;48.722;9.362;2023-02-28T04:12:41;15.37;;;14.13;;
46589;SDS011;32313;48.722;9.362;2023-02-28T04:15:07;14.83;;;13.73;;
46589;SDS011;32313;48.722;9.362;2023-02-28T04:17:33;14.80;;;13.80;;
46589;SDS011;32313;48.722;9.362;2023-02-28T04:19:59;14.57;;;13.60;;
46589;SDS011;32313;48.722;9.362;2023-02-28T04:22:24;14.60;;;13.60;;
46589;SDS011;32313;48.722;9.362;2023-02-28T04:24:53;14.77;;;13.57;;
46589;SDS011;32313;48.722;9.362;2023-02-28T04:27:19;15.00;;;14.00;;
46589;SDS011;32313;48.722;9.362;2023-02-28T04:29:46;15.10;;;14.00;;
46589;SDS011;32313;48.722;9.362;2023-02-28T04:32:12;14.90;;;13.90;;
46589;SDS011;32313;48.722;9.362;2023-02-28T04:34:38;15.13;;;14.03;;
46589;SDS011;32313;48.722;9.362;2023-02-28T04:37:03;15.23;;;14.20;;
46589;SDS011;32313;48.722;9.362;2023-02-28T04:39:29;16.00;;;14.83;;
46589;SDS011;32313;48.722;9.362;2023-02-28T04:41:55;16.10;;;14.90;;
46589;SDS011;32313;48.722;9.362;2023-02-28T04:44:21;16.47;;;15.10;;
46589;SDS011;32313;48.722;9.362;2023-02-28T04:46:47;15.80;;;14.60;;
46589;SDS011;32313;48.722;9.362;2023-02-28T04:49:14;15.73;;;14.80;;
46589;SDS011;32313;48.722;9.362;2023-02-28T04:51:40;15.27;;;14.23;;
46589;SDS011;32313;48.722;9.362;2023-02-28T04:54:06;15.27;;;14.17;;
46589;SDS011;32313;48.722;9.362;2023-02-28T04:56:32;15.33;;;14.23;;
46589;SDS011;32313;48.722;9.362;2023-02-28T04:58:58;14.97;;;13.80;;
46589;SDS011;32313;48.722;9.362;2023-02-28T05:01:25;15.37;;;14.37;;
46589;SDS011;32313;48.722;9.362;2023-02-28T05:03:56;15.87;;;14.73;;
46589;SDS011;32313;48.722;9.362;2023-02-28T05:06:24;15.43;;;14.40;;
46589;SDS011;32313;48.722;9.362;2023-02-28T05:08:51;14.87;;;13.77;;
46589;SDS011;32313;48.722;9.362;2023-02-28T05:11:25;15.47;;;14.37;;
46589;SDS011;32313;48.722;9.362;2023-02-28T05:13:54;16.23;;;15.13;;
46589;SDS011;32313;48.722;9.362;2023-02-28T05:16:20;15.10;;;13.97;;
46589;SDS011;32313;48.722;9.362;2023-02-28T05:18:46;15.70;;;14.60;;
46589;SDS011;32313;48.722;9.362;2023-02-28T05:21:25;15.17;;;14.13;;
46589;SDS011;32313;48.722;9.362;2023-02-28T05:23:57;15.53;;;14.40;;
46589;SDS011;32313;48.722;9.362;2023-02-28T05:26:25;16.13;;;14.93;;
46589;SDS011;32313;48.722;9.362;2023-02-28T05:28:51;15.67;;;14.60;;
46589;SDS011;32313;48.722;9.362;2023-02-28T05:31:17;14.67;;;13.70;;
46589;SDS011;32313;48.722;9.362;2023-02-28T05:33:43;15.87;;;14.67;;
46589;SDS011;32313;48.722;9.362;2023-02-28T05:36:09;16.20;;;15.13;;
46589;SDS011;32313;48.722;9.362;2023-02-28T05:38:35;15.80;;;14.70;;
46589;SDS011;32313;48.722;9.362;2023-02-28T05:41:04;16.37;;;14.87;;
46589;SDS011;32313;48.722;9.362;2023-02-28T05:43:33;15.97;;;14.77;;
46589;SDS011;32313;48.722;9.362;2023-02-28T05:46:01;15.70;;;14.50;;
46589;SDS011;32313;48.722;9.362;2023-02-28T05:48:31;16.43;;;15.23;;
46589;SDS011;32313;48.722;9.362;2023-02-28T05:50:58;17.07;;;15.77;;
46589;SDS011;32313;48.722;9.362;2023-02-28T05:53:23;15.97;;;14.77;;
46589;SDS011;32313;48.722;9.362;2023-02-28T05:55:49;16.77;;;15.37;;
46589;SDS011;32313;48.722;9.362;2023-02-28T05:58:15;16.43;;;15.20;;
46589;SDS011;32313;48.722;9.362;2023-02-28T06:00:40;17.67;;;16.17;;
46589;SDS011;32313;48.722;9.362;2023-02-28T06:03:06;17.40;;;15.90;;
46589;SDS011;32313;48.722;9.362;2023-02-28T06:05:32;20.17;;;18.13;;
46589;SDS011;32313;48.722;9.362;2023-02-28T06:07:58;17.33;;;15.97;;
46589;SDS011;32313;48.722;9.362;2023-02-28T06:10:23;19.70;;;17.90;;
46589;SDS011;32313;48.722;9.362;2023-02-28T06:12:49;18.33;;;16.43;;
46589;SDS011;32313;48.722;9.362;2023-02-28T06:15:15;17.70;;;16.13;;
46589;SDS011;32313;48.722;9.362;2023-02-28T06:17:42;17.20;;;15.90;;
46589;SDS011;32313;48.722;9.362;2023-02-28T06:20:08;17.70;;;16.27;;
46589;SDS011;32313;48.722;9.362;2023-02-28T06:22:37;17.37;;;16.17;;
46589;SDS011;32313;48.722;9.362;2023-02-28T06:25:04;16.63;;;15.43;;
46589;SDS011;32313;48.722;9.362;2023-02-28T06:27:31;17.27;;;15.97;;
46589;SDS011;32313;48.722;9.362;2023-02-28T06:29:57;17.00;;;15.70;;
46589;SDS011;32313;48.722;9.362;2023-02-28T06:32:23;17.07;;;15.77;;
46589;SDS011;32313;48.722;9.362;2023-02-28T06:34:49;17.23;;;15.73;;
46589;SDS011;32313;48.722;9.362;2023-02-28T06:37:15;17.27;;;15.93;;
46589;SDS011;32313;48.722;9.362;2023-02-28T06:39:42;18.07;;;16.50;;
46589;SDS011;32313;48.722;9.362;2023-02-28T06:42:08;17.53;;;16.20;;
46589;SDS011;32313;48.722;9.362;2023-02-28T06:44:33;17.20;;;15.80;;
46589;SDS011;32313;48.722;9.362;2023-02-28T06:47:03;17.77;;;16.10;;
46589;SDS011;32313;48.722;9.362;2023-02-28T06:49:33;18.97;;;17.30;;
46589;SDS011;32313;48.722;9.362;2023-02-28T06:52:00;18.90;;;17.27;;
46589;SDS011;32313;48.722;9.362;2023-02-28T06:54:26;16.40;;;15.20;;
46589;SDS011;32313;48.722;9.362;2023-02-28T06:56:52;17.73;;;16.50;;
46589;SDS011;32313;48.722;9.362;2023-02-28T06:59:19;17.57;;;16.17;;
46589;SDS011;32313;48.722;9.362;2023-02-28T07:01:45;17.70;;;16.30;;
46589;SDS011;32313;48.722;9.362;2023-02-28T07:04:11;18.40;;;16.80;;
46589;SDS011;32313;48.722;9.362;2023-02-28T07:06:38;17.33;;;15.93;;
46589;SDS011;32313;48.722;9.362;2023-02-28T07:09:04;17.27;;;16.00;;
46589;SDS011;32313;48.722;9.362;2023-02-28T07:11:30;18.67;;;17.17;;
46589;SDS011;32313;48.722;9.362;2023-02-28T07:13:56;18.10;;;16.67;;
46589;SDS011;32313;48.722;9.362;2023-02-28T07:16:23;18.13;;;16.63;;
46589;SDS011;32313;48.722;9.362;2023-02-28T07:18:51;16.87;;;15.57;;
46589;SDS011;32313;48.722;9.362;2023-02-28T07:21:17;17.43;;;15.97;;
46589;SDS011;32313;48.722;9.362;2023-02-28T07:23:43;17.43;;;16.10;;
46589;SDS011;32313;48.722;9.362;2023-02-28T07:26:11;17.13;;;15.83;;
46589;SDS011;32313;48.722;9.362;2023-02-28T07:28:40;17.10;;;15.70;;
46589;SDS011;32313;48.722;9.362;2023-02-28T07:31:07;17.33;;;15.90;;
46589;SDS011;32313;48.722;9.362;2023-02-28T07:33:34;17.07;;;15.70;;
46589;SDS011;32313;48.722;9.362;2023-02-28T07:36:04;18.17;;;16.63;;
46589;SDS011;32313;48.722;9.362;2023-02-28T07:38:35;17.33;;;16.13;;
46589;SDS011;32313;48.722;9.362;2023-02-28T07:41:02;17.60;;;16.20;;
46589;SDS011;32313;48.722;9.362;2023-02-28T07:43:32;17.80;;;16.40;;
46589;SDS011;32313;48.722;9.362;2023-02-28T07:46:02;17.67;;;16.27;;
46589;SDS011;32313;48.722;9.362;2023-02-28T07:48:33;17.87;;;16.27;;
46589;SDS011;32313;48.722;9.362;2023-02-28T07:50:59;17.87;;;16.30;;
46589;SDS011;32313;48.722;9.362;2023-02-28T07:53:25;17.77;;;16.30;;
46589;SDS011;32313;48.722;9.362;2023-02-28T07:55:54;16.87;;;15.57;;
46589;SDS011;32313;48.722;9.362;2023-02-28T07:58:21;17.30;;;15.80;;
46589;SDS011;32313;48.722;9.362;2023-02-28T08:00:46;18.20;;;16.53;;
46589;SDS011;32313;48.722;9.362;2023-02-28T08:03:12;18.03;;;16.60;;
46589;SDS011;32313;48.722;9.362;2023-02-28T08:05:39;17.90;;;16.50;;
46589;SDS011;32313;48.722;9.362;2023-02-28T08:08:05;17.10;;;15.80;;
46589;SDS011;32313;48.722;9.362;2023-02-28T08:10:32;17.83;;;16.43;;
46589;SDS011;32313;48.722;9.362;2023-02-28T08:12:57;17.87;;;16.37;;
46589;SDS011;32313;48.722;9.362;2023-02-28T08:15:23;18.30;;;16.60;;
46589;SDS011;32313;48.722;9.362;2023-02-28T08:17:48;20.27;;;18.20;;
46589;SDS011;32313;48.722;9.362;2023-02-28T08:20:14;18.67;;;17.00;;
46589;SDS011;32313;48.722;9.362;2023-02-28T08:22:40;18.37;;;16.57;;
46589;SDS011;32313;48.722;9.362;2023-02-28T08:25:06;19.37;;;17.67;;
46589;SDS011;32313;48.722;9.362;2023-02-28T08:27:33;18.40;;;16.70;;
46589;SDS011;32313;48.722;9.362;2023-02-28T08:29:59;18.50;;;16.70;;
46589;SDS011;32313;48.722;9.362;2023-02-28T08:32:24;18.87;;;17.17;;
46589;SDS011;32313;48.722;9.362;2023-02-28T08:34:50;18.53;;;16.73;;
46589;SDS011;32313;48.722;9.362;2023-02-28T08:37:16;18.07;;;16.47;;
46589;SDS011;32313;48.722;9.362;2023-02-28T08:39:42;18.73;;;17.03;;
46589;SDS011;32313;48.722;9.362;2023-02-28T08:42:07;18.23;;;16.53;;
46589;SDS011;32313;48.722;9.362;2023-02-28T08:44:33;18.77;;;16.87;;
46589;SDS011;32313;48.722;9.362;2023-02-28T08:46:59;18.23;;;16.60;;
46589;SDS011;32313;48.722;9.362;2023-02-28T08:49:24;18.40;;;16.80;;
46589;SDS011;32313;48.722;9.362;2023-02-28T08:51:50;18.10;;;16.47;;
46589;SDS011;32313;48.722;9.362;2023-02-28T08:54:16;18.60;;;16.90;;
46589;SDS011;32313;48.722;9.362;2023-02-28T08:56:44;17.53;;;15.77;;
46589;SDS011;32313;48.722;9.362;2023-02-28T08:59:14;17.93;;;16.30;;
46589;SDS011;32313;48.722;9.362;2023-02-28T09:01:41;17.93;;;16.17;;
46589;SDS011;32313;48.722;9.362;2023-02-28T09:04:08;17.27;;;15.77;;
46589;SDS011;32313;48.722;9.362;2023-02-28T09:06:36;17.17;;;15.67;;
46589;SDS011;32313;48.722;9.362;2023-02-28T09:09:02;17.17;;;15.67;;
46589;SDS011;32313;48.722;9.362;2023-02-28T09:11:30;18.57;;;16.97;;
46589;SDS011;32313;48.722;9.362;2023-02-28T09:13:57;17.23;;;15.73;;
46589;SDS011;32313;48.722;9.362;2023-02-28T09:16:24;17.27;;;15.77;;
46589;SDS011;32313;48.722;9.362;2023-02-28T09:18:49;16.50;;;15.10;;
46589;SDS011;32313;48.722;9.362;2023-02-28T09:21:16;17.13;;;15.63;;
46589;SDS011;32313;48.722;9.362;2023-02-28T09:23:46;17.63;;;16.03;;
46589;SDS011;32313;48.722;9.362;2023-02-28T09:26:14;16.90;;;15.37;;
46589;SDS011;32313;48.722;9.362;2023-02-28T09:28:41;16.87;;;15.47;;
46589;SDS011;32313;48.722;9.362;2023-02-28T09:31:10;17.77;;;16.17;;
46589;SDS011;32313;48.722;9.362;2023-02-28T09:33:41;18.07;;;16.47;;
46589;SDS011;32313;48.722;9.362;2023-02-28T09:36:06;17.83;;;16.33;;
46589;SDS011;32313;48.722;9.362;2023-02-28T09:38:32;16.10;;;14.80;;
46589;SDS011;32313;48.722;9.362;2023-02-28T09:41:00;16.87;;;15.47;;
46589;SDS011;32313;48.722;9.362;2023-02-28T09:43:29;16.90;;;15.40;;
46589;SDS011;32313;48.722;9.362;2023-02-28T09:46:06;17.80;;;16.23;;
46589;SDS011;32313;48.722;9.362;2023-02-28T09:48:54;16.23;;;14.93;;
46589;SDS011;32313;48.722;9.362;2023-02-28T09:54:21;15.10;;;13.80;;
46589;SDS011;32313;48.722;9.362;2023-02-28T09:56:53;15.67;;;14.37;;
46589;SDS011;32313;48.722;9.362;2023-02-28T10:05:12;14.90;;;13.70;;
46589;SDS011;32313;48.722;9.362;2023-02-28T10:07:48;15.83;;;14.33;;
46589;SDS011;32313;48.722;9.362;2023-02-28T10:10:22;15.57;;;14.27;;
46589;SDS011;32313;48.722;9.362;2023-02-28T10:13:04;16.07;;;14.47;;
46589;SDS011;32313;48.722;9.362;2023-02-28T10:15:47;15.73;;;14.33;;
46589;SDS011;32313;48.722;9.362;2023-02-28T10:18:19;17.00;;;15.47;;
46589;SDS011;32313;48.722;9.362;2023-02-28T10:20:49;16.77;;;15.27;;
46589;SDS011;32313;48.722;9.362;2023-02-28T10:23:35;15.30;;;13.90;;
46589;SDS011;32313;48.722;9.362;2023-02-28T10:26:12;16.80;;;15.10;;
46589;SDS011;32313;48.722;9.362;2023-02-28T10:28:41;15.40;;;14.00;;
46589;SDS011;32313;48.722;9.362;2023-02-28T10:31:08;15.57;;;14.17;;
46589;SDS011;32313;48.722;9.362;2023-02-28T10:33:43;15.93;;;14.27;;
46589;SDS011;32313;48.722;9.362;2023-02-28T10:36:17;14.07;;;12.90;;
46589;SDS011;32313;48.722;9.362;2023-02-28T10:38:45;14.30;;;13.00;;
46589;SDS011;32313;48.722;9.362;2023-02-28T10:41:13;14.27;;;13.07;;
46589;SDS011;32313;48.722;9.362;2023-02-28T10:44:15;14.57;;;13.17;;
46589;SDS011;32313;48.722;9.362;2023-02-28T10:46:48;14.80;;;13.27;;
46589;SDS011;32313;48.722;9.362;2023-02-28T10:49:28;14.17;;;12.97;;
46589;SDS011;32313;48.722;9.362;2023-02-28T10:51:58;12.73;;;11.43;;
46589;SDS011;32313;48.722;9.362;2023-02-28T10:54:32;13.47;;;12.27;;
46589;SDS011;32313;48.722;9.362;2023-02-28T10:57:20;11.77;;;10.77;;
46589;SDS011;32313;48.722;9.362;2023-02-28T10:59:52;12.87;;;11.77;;
46589;SDS011;32313;48.722;9.362;2023-02-28T11:02:38;12.37;;;11.37;;
46589;SDS011;32313;48.722;9.362;2023-02-28T11:05:24;13.27;;;12.03;;
46589;SDS011;32313;48.722;9.362;2023-02-28T11:07:59;11.23;;;10.33;;
46589;SDS011;32313;48.722;9.362;2023-02-28T11:10:43;11.03;;;10.03;;
46589;SDS011;32313;48.722;9.362;2023-02-28T11:13:34;12.17;;;10.90;;
46589;SDS011;32313;48.722;9.362;2023-02-28T11:16:04;12.60;;;11.30;;
46589;SDS011;32313;48.722;9.362;2023-02-28T11:18:49;10.43;;;9.50;;
46589;SDS011;32313;48.722;9.362;2023-02-28T11:23:52;11.33;;;10.23;;
46589;SDS011;32313;48.722;9.362;2023-02-28T11:26:36;11.63;;;10.50;;
46589;SDS011;32313;48.722;9.362;2023-02-28T11:29:11;11.20;;;10.03;;
46589;SDS011;32313;48.722;9.362;2023-02-28T11:32:00;11.70;;;10.70;;
46589;SDS011;32313;48.722;9.362;2023-02-28T11:34:28;11.00;;;10.10;;
46589;SDS011;32313;48.722;9.362;2023-02-28T11:36:55;10.80;;;9.70;;
46589;SDS011;32313;48.722;9.362;2023-02-28T11:39:23;12.63;;;10.80;;
46589;SDS011;32313;48.722;9.362;2023-02-28T11:53:22;11.80;;;10.67;;
46589;SDS011;32313;48.722;9.362;2023-02-28T11:56:38;10.67;;;9.77;;
46589;SDS011;32313;48.722;9.362;2023-02-28T12:07:13;10.40;;;9.40;;
46589;SDS011;32313;48.722;9.362;2023-02-28T12:18:07;9.97;;;9.07;;
46589;SDS011;32313;48.722;9.362;2023-02-28T12:29:47;10.90;;;9.83;;
46589;SDS011;32313;48.722;9.362;2023-02-28T12:31:55;10.00;;;9.10;;
46589;SDS011;32313;48.722;9.362;2023-02-28T12:34:31;10.10;;;9.20;;
46589;SDS011;32313;48.722;9.362;2023-02-28T12:37:02;11.20;;;10.20;;
46589;SDS011;32313;48.722;9.362;2023-02-28T12:39:35;10.53;;;9.63;;
46589;SDS011;32313;48.722;9.362;2023-02-28T12:42:05;10.10;;;9.30;;
46589;SDS011;32313;48.722;9.362;2023-02-28T12:44:43;10.03;;;9.03;;
46589;SDS011;32313;48.722;9.362;2023-02-28T12:47:14;11.53;;;10.43;;
46589;SDS011;32313;48.722;9.362;2023-02-28T12:49:55;11.80;;;10.60;;
46589;SDS011;32313;48.722;9.362;2023-02-28T12:52:33;10.00;;;9.10;;
46589;SDS011;32313;48.722;9.362;2023-02-28T13:00:24;9.80;;;8.90;;
46589;SDS011;32313;48.722;9.362;2023-02-28T13:06:05;10.67;;;9.77;;
46589;SDS011;32313;48.722;9.362;2023-02-28T13:11:06;10.60;;;9.60;;
46589;SDS011;32313;48.722;9.362;2023-02-28T13:13:32;11.03;;;10.03;;
46589;SDS011;32313;48.722;9.362;2023-02-28T13:21:09;10.80;;;9.70;;
46589;SDS011;32313;48.722;9.362;2023-02-28T13:28:57;10.43;;;9.43;;
46589;SDS011;32313;48.722;9.362;2023-02-28T13:34:33;9.33;;;8.43;;
46589;SDS011;32313;48.722;9.362;2023-02-28T13:39:57;9.87;;;8.97;;
46589;SDS011;32313;48.722;9.362;2023-02-28T13:42:35;9.90;;;9.10;;
46589;SDS011;32313;48.722;9.362;2023-02-28T13:47:40;9.63;;;8.83;;
46589;SDS011;32313;48.722;9.362;2023-02-28T14:11:38;9.90;;;9.00;;
46589;SDS011;32313;48.722;9.362;2023-02-28T14:14:06;10.43;;;9.43;;
46589;SDS011;32313;48.722;9.362;2023-02-28T14:16:40;9.87;;;8.97;;
46589;SDS011;32313;48.722;9.362;2023-02-28T14:21:47;10.20;;;9.30;;
46589;SDS011;32313;48.722;9.362;2023-02-28T14:27:24;9.93;;;9.03;;
46589;SDS011;32313;48.722;9.362;2023-02-28T14:30:19;10.43;;;9.53;;
46589;SDS011;32313;48.722;9.362;2023-02-28T14:38:37;9.67;;;8.77;;
46589;SDS011;32313;48.722;9.362;2023-02-28T14:43:58;9.50;;;8.70;;
46589;SDS011;32313;48.722;9.362;2023-02-28T14:46:27;11.63;;;10.53;;
46589;SDS011;32313;48.722;9.362;2023-02-28T14:49:00;10.43;;;9.63;;
46589;SDS011;32313;48.722;9.362;2023-02-28T14:51:26;11.40;;;10.40;;
46589;SDS011;32313;48.722;9.362;2023-02-28T14:53:56;11.40;;;10.30;;
46589;SDS011;32313;48.722;9.362;2023-02-28T14:56:24;11.37;;;10.47;;
46589;SDS011;32313;48.722;9.362;2023-02-28T14:58:57;11.77;;;10.67;;
46589;SDS011;32313;48.722;9.362;2023-02-28T15:01:24;11.77;;;10.53;;
46589;SDS011;32313;48.722;9.362;2023-02-28T15:04:02;12.10;;;11.10;;
46589;SDS011;32313;48.722;9.362;2023-02-28T15:06:30;12.43;;;11.30;;
46589;SDS011;32313;48.722;9.362;2023-02-28T15:11:52;12.80;;;11.43;;
46589;SDS011;32313;48.722;9.362;2023-02-28T15:14:19;11.70;;;10.60;;
46589;SDS011;32313;48.722;9.362;2023-02-28T15:16:46;12.40;;;11.30;;
46589;SDS011;32313;48.722;9.362;2023-02-28T15:19:39;12.57;;;11.57;;
46589;SDS011;32313;48.722;9.362;2023-02-28T15:22:17;13.03;;;11.80;;
46589;SDS011;32313;48.722;9.362;2023-02-28T15:24:49;13.57;;;12.27;;
46589;SDS011;32313;48.722;9.362;2023-02-28T15:27:24;12.53;;;11.43;;
46589;SDS011;32313;48.722;9.362;2023-02-28T15:29:56;12.73;;;11.73;;
46589;SDS011;32313;48.722;9.362;2023-02-28T15:32:30;14.97;;;13.67;;
46589;SDS011;32313;48.722;9.362;2023-02-28T15:34:59;13.27;;;11.97;;
46589;SDS011;32313;48.722;9.362;2023-02-28T15:40:17;14.93;;;13.63;;
46589;SDS011;32313;48.722;9.362;2023-02-28T15:43:06;12.27;;;11.27;;
46589;SDS011;32313;48.722;9.362;2023-02-28T15:45:46;13.50;;;12.23;;
46589;SDS011;32313;48.722;9.362;2023-02-28T15:48:31;12.97;;;11.67;;
46589;SDS011;32313;48.722;9.362;2023-02-28T15:51:14;13.13;;;11.93;;
46589;SDS011;32313;48.722;9.362;2023-02-28T15:53:50;12.93;;;11.87;;
46589;SDS011;32313;48.722;9.362;2023-02-28T15:56:23;14.27;;;12.63;;
46589;SDS011;32313;48.722;9.362;2023-02-28T15:59:01;13.27;;;12.17;;
46589;SDS011;32313;48.722;9.362;2023-02-28T16:01:31;15.13;;;13.83;;
46589;SDS011;32313;48.722;9.362;2023-02-28T16:04:03;13.87;;;12.67;;
46589;SDS011;32313;48.722;9.362;2023-02-28T16:06:32;13.17;;;12.00;;
46589;SDS011;32313;48.722;9.362;2023-02-28T16:09:03;15.03;;;13.73;;
46589;SDS011;32313;48.722;9.362;2023-02-28T16:11:33;14.70;;;13.30;;
46589;SDS011;32313;48.722;9.362;2023-02-28T16:14:02;15.10;;;13.80;;
46589;SDS011;32313;48.722;9.362;2023-02-28T16:16:28;14.07;;;12.60;;
46589;SDS011;32313;48.722;9.362;2023-02-28T16:18:55;14.00;;;12.70;;
46589;SDS011;32313;48.722;9.362;2023-02-28T16:21:21;15.30;;;13.90;;
46589;SDS011;32313;48.722;9.362;2023-02-28T16:23:50;14.27;;;13.07;;
46589;SDS011;32313;48.722;9.362;2023-02-28T16:26:23;15.90;;;14.50;;
46589;SDS011;32313;48.722;9.362;2023-02-28T16:28:50;14.53;;;13.23;;
46589;SDS011;32313;48.722;9.362;2023-02-28T16:31:16;16.47;;;14.87;;
46589;SDS011;32313;48.722;9.362;2023-02-28T16:33:43;15.33;;;13.80;;
46589;SDS011;32313;48.722;9.362;2023-02-28T16:36:14;15.57;;;14.07;;
46589;SDS011;32313;48.722;9.362;2023-02-28T16:38:45;16.30;;;14.70;;
46589;SDS011;32313;48.722;9.362;2023-02-28T16:41:18;14.87;;;13.60;;
46589;SDS011;32313;48.722;9.362;2023-02-28T16:43:46;16.33;;;14.93;;
46589;SDS011;32313;48.722;9.362;2023-02-28T16:46:16;16.70;;;15.20;;
46589;SDS011;32313;48.722;9.362;2023-02-28T16:48:43;15.23;;;13.87;;
46589;SDS011;32313;48.722;9.362;2023-02-28T16:51:13;15.83;;;14.43;;
46589;SDS011;32313;48.722;9.362;2023-02-28T16:53:39;16.37;;;14.77;;
46589;SDS011;32313;48.722;9.362;2023-02-28T16:56:05;17.90;;;16.30;;
46589;SDS011;32313;48.722;9.362;2023-02-28T16:58:32;17.23;;;15.53;;
46589;SDS011;32313;48.722;9.362;2023-02-28T17:01:01;19.13;;;17.43;;
46589;SDS011;32313;48.722;9.362;2023-02-28T17:03:28;17.20;;;15.60;;
46589;SDS011;32313;48.722;9.362;2023-02-28T17:05:54;17.70;;;16.20;;
46589;SDS011;32313;48.722;9.362;2023-02-28T17:08:20;18.13;;;16.57;;
46589;SDS011;32313;48.722;9.362;2023-02-28T17:10:46;16.90;;;15.33;;
46589;SDS011;32313;48.722;9.362;2023-02-28T17:13:11;18.00;;;16.30;;
46589;SDS011;32313;48.722;9.362;2023-02-28T17:15:37;17.90;;;16.20;;
46589;SDS011;32313;48.722;9.362;2023-02-28T17:18:04;16.70;;;15.30;;
46589;SDS011;32313;48.722;9.362;2023-02-28T17:20:30;17.37;;;15.87;;